KSAV/SAV METAR and TAF weather

Enter ICAO airport designator
Station Type Date Time Source
KSAV METAR 2021/01/17 18:53 UTC NOAA

KSAV 171853Z 26011KT 10SM SCT250 13/M02 A2997 RMK AO2 SLP149 T01331022


Station Type Date Time Source
KSAV Decoded METAR 2021/01/17 18:53 UTC NOAA

SAVANNAH INTERNATIONAL AIRPORT , GA, United States (KSAV) 32-07N 81-12W 14M
Jan 17, 2021 - 01:53 PM EST / 2021.01.17 1853 UTC
Wind: from the W (260 degrees) at 13 MPH (11 KT):0
Visibility: 10 mile(s):0
Sky conditions: partly cloudy
Temperature: 55.9 F (13.3 C)
Dew Point: 28.0 F (-2.2 C)
Relative Humidity: 34%
Pressure (altimeter): 29.97 in. Hg (1014 hPa)
ob: KSAV 171853Z 26011KT 10SM SCT250 13/M02 A2997 RMK AO2 SLP149 T01331022
cycle: 19

Station Type Date Time Source
KSAV TAF 2021/01/17 18:38 UTC NOAA

TAF KSAV 171735Z 1718/1818 26009KT P6SM BKN250
FM180300 26004KT P6SM FEW010 BKN250
FM181500 28010G16KT P6SM SKC

Example: see airport list